Time;durP1;ratioP1;P1;durP2;ratioP2;P2;SDS_P1;SDS_P2;PMS_P1;PMS_P2;Temp;Humidity;BMP_temperature;BMP_pressure;BME280_temperature;BME280_humidity;BME280_pressure;Samples;Min_cycle;Max_cycle;Signal;HPM_P1;HPM_P2
2023/02/05 00:01:48;;;;;;;11.25;10.30;;;;;;;;;;4995312;28;20052;-53
2023/02/05 00:04:13;;;;;;;12.77;11.80;;;;;;;;;;4998787;28;20053;-51
2023/02/05 00:06:39;;;;;;;11.07;10.38;;;;;;;;;;4997334;28;20041;-53
2023/02/05 00:09:04;;;;;;;11.88;10.95;;;;;;;;;;4997613;28;20126;-50
2023/02/05 00:11:29;;;;;;;11.65;10.95;;;;;;;;;;4998402;28;20025;-54
2023/02/05 00:13:55;;;;;;;11.40;10.70;;;;;;;;;;4994478;28;20042;-53
2023/02/05 00:16:22;;;;;;;11.93;11.18;;;;;;;;;;4996103;28;20385;-53
2023/02/05 00:18:48;;;;;;;11.65;10.90;;;;;;;;;;4998036;28;20124;-52
2023/02/05 00:21:15;;;;;;;12.15;11.43;;;;;;;;;;4996737;28;20550;-50
2023/02/05 00:23:40;;;;;;;11.30;10.63;;;;;;;;;;4995306;28;20042;-52
2023/02/05 00:26:06;;;;;;;11.90;11.20;;;;;;;;;;4999440;28;20112;-49
2023/02/05 00:28:34;;;;;;;12.73;11.63;;;;;;;;;;4997131;28;20034;-53
2023/02/05 00:31:00;;;;;;;11.40;10.70;;;;;;;;;;4995824;28;20037;-51
2023/02/05 00:33:26;;;;;;;11.00;10.27;;;;;;;;;;4995768;28;20034;-53
2023/02/05 00:35:51;;;;;;;10.52;9.85;;;;;;;;;;4993604;28;20096;-50
2023/02/05 00:38:17;;;;;;;11.65;10.80;;;;;;;;;;4995615;28;20038;-49
2023/02/05 00:40:42;;;;;;;11.45;10.75;;;;;;;;;;4996136;28;20041;-52
2023/02/05 00:43:08;;;;;;;14.77;11.80;;;;;;;;;;4994930;28;20699;-49
2023/02/05 00:45:34;;;;;;;11.20;10.50;;;;;;;;;;4996013;28;20041;-52
2023/02/05 00:48:06;;;;;;;11.55;10.75;;;;;;;;;;4996090;28;20068;-52
2023/02/05 00:50:33;;;;;;;11.23;10.52;;;;;;;;;;4993304;28;20041;-51
2023/02/05 00:52:58;;;;;;;11.05;10.35;;;;;;;;;;4995526;28;20452;-54
2023/02/05 00:55:24;;;;;;;11.10;10.40;;;;;;;;;;5013540;28;20049;-49
2023/02/05 00:57:50;;;;;;;12.98;12.10;;;;;;;;;;4993760;28;20451;-53
2023/02/05 01:00:16;;;;;;;11.50;10.80;;;;;;;;;;4995870;28;20038;-53
2023/02/05 01:02:41;;;;;;;12.23;11.52;;;;;;;;;;4997473;28;20030;-52
2023/02/05 01:05:07;;;;;;;12.55;11.65;;;;;;;;;;4981822;28;20069;-53
2023/02/05 01:07:33;;;;;;;12.93;12.00;;;;;;;;;;4993708;28;20061;-50
2023/02/05 01:09:58;;;;;;;11.52;10.82;;;;;;;;;;4994588;28;20444;-51
2023/02/05 01:12:23;;;;;;;10.95;10.27;;;;;;;;;;4995143;28;20133;-53
2023/02/05 01:14:49;;;;;;;11.75;11.00;;;;;;;;;;4996020;28;20031;-50
2023/02/05 01:17:15;;;;;;;11.48;10.75;;;;;;;;;;4995915;28;20034;-53
2023/02/05 01:19:40;;;;;;;10.73;10.05;;;;;;;;;;4996150;28;20036;-53
2023/02/05 01:22:06;;;;;;;11.25;10.55;;;;;;;;;;4996648;28;20033;-54
2023/02/05 01:24:31;;;;;;;10.88;10.07;;;;;;;;;;4994983;28;20060;-51
2023/02/05 01:26:57;;;;;;;11.07;10.40;;;;;;;;;;4995303;28;20038;-52
2023/02/05 01:29:24;;;;;;;10.10;9.50;;;;;;;;;;4994396;28;20345;-52
2023/02/05 01:31:49;;;;;;;11.93;11.13;;;;;;;;;;4995547;28;20026;-54
2023/02/05 01:34:15;;;;;;;9.65;9.05;;;;;;;;;;4995399;28;20371;-50
2023/02/05 01:36:40;;;;;;;8.88;8.27;;;;;;;;;;4995610;28;20049;-51
2023/02/05 01:39:06;;;;;;;9.85;9.25;;;;;;;;;;4996180;28;20045;-54
2023/02/05 01:41:31;;;;;;;9.32;8.73;;;;;;;;;;4998433;28;20044;-54
2023/02/05 01:44:23;;;;;;;9.90;9.30;;;;;;;;;;4998014;28;20519;-54
2023/02/05 01:46:51;;;;;;;9.70;9.10;;;;;;;;;;4994730;28;20177;-54
2023/02/05 01:49:33;;;;;;;9.75;9.15;;;;;;;;;;4996186;28;20052;-54
2023/02/05 01:52:05;;;;;;;10.85;10.13;;;;;;;;;;4998168;28;20036;-53
2023/02/05 01:54:32;;;;;;;10.35;9.52;;;;;;;;;;4995800;28;20129;-51
2023/02/05 01:57:04;;;;;;;10.63;9.93;;;;;;;;;;4993891;28;20037;-54
2023/02/05 01:59:31;;;;;;;;;;;;;;;;;;4995260;28;20106;-52
2023/02/05 02:01:59;;;;;;;11.27;10.57;;;;;;;;;;4994121;28;19918;-52
2023/02/05 02:04:51;;;;;;;11.07;10.38;;;;;;;;;;4994917;28;20784;-50
2023/02/05 02:07:20;;;;;;;11.15;10.35;;;;;;;;;;4994026;28;20064;-54
2023/02/05 02:09:47;;;;;;;12.60;11.80;;;;;;;;;;4995858;28;20110;-55
2023/02/05 02:12:16;;;;;;;10.77;10.07;;;;;;;;;;5002369;28;20038;-54
2023/02/05 02:14:45;;;;;;;10.80;10.10;;;;;;;;;;4995275;28;20376;-54
2023/02/05 02:17:13;;;;;;;13.73;10.50;;;;;;;;;;4995894;28;20045;-54
2023/02/05 02:20:02;;;;;;;10.80;10.15;;;;;;;;;;4997065;28;20133;-52
2023/02/05 02:22:39;;;;;;;11.15;10.45;;;;;;;;;;4995387;28;20050;-53
2023/02/05 02:25:20;;;;;;;11.93;11.23;;;;;;;;;;4994333;28;20038;-47
2023/02/05 02:27:56;;;;;;;11.43;10.73;;;;;;;;;;4994850;28;20488;-47
2023/02/05 02:30:38;;;;;;;11.45;10.75;;;;;;;;;;4992379;28;20042;-53
2023/02/05 02:33:16;;;;;;;10.73;10.02;;;;;;;;;;4993873;28;20112;-55
2023/02/05 02:35:51;;;;;;;12.40;11.60;;;;;;;;;;4995411;28;20133;-55
2023/02/05 02:38:31;;;;;;;11.15;10.45;;;;;;;;;;4995718;28;20125;-50
2023/02/05 02:41:12;;;;;;;12.00;11.27;;;;;;;;;;4993346;28;20480;-46
2023/02/05 02:43:49;;;;;;;12.40;11.60;;;;;;;;;;5001200;28;20046;-46
2023/02/05 02:46:27;;;;;;;11.65;10.85;;;;;;;;;;4994689;28;20041;-48
2023/02/05 02:48:55;;;;;;;11.05;10.35;;;;;;;;;;4993289;28;20482;-53
2023/02/05 02:51:22;;;;;;;11.80;11.10;;;;;;;;;;4991679;28;20053;-54
2023/02/05 02:53:53;;;;;;;11.55;10.75;;;;;;;;;;4992125;28;20052;-56
2023/02/05 02:56:20;;;;;;;12.65;10.55;;;;;;;;;;4996776;28;20034;-45
2023/02/05 02:58:49;;;;;;;11.68;10.98;;;;;;;;;;4996277;28;20053;-51
2023/02/05 03:01:18;;;;;;;11.63;10.93;;;;;;;;;;4993784;28;20070;-56
2023/02/05 03:03:51;;;;;;;12.10;11.20;;;;;;;;;;4997507;28;20044;-54
2023/02/05 03:06:18;;;;;;;10.77;9.85;;;;;;;;;;4997993;28;20034;-54
2023/02/05 03:08:57;;;;;;;9.80;9.20;;;;;;;;;;4994815;28;20614;-52
2023/02/05 03:11:25;;;;;;;10.18;9.57;;;;;;;;;;4996986;28;20034;-54
2023/02/05 03:13:50;;;;;;;10.50;9.80;;;;;;;;;;4997571;28;20081;-53
2023/02/05 03:16:18;;;;;;;10.00;9.40;;;;;;;;;;4998818;28;20570;-52
2023/02/05 03:18:44;;;;;;;10.15;9.55;;;;;;;;;;4997872;28;20122;-52
2023/02/05 03:21:29;;;;;;;11.35;10.65;;;;;;;;;;4998031;28;20038;-55
2023/02/05 03:23:55;;;;;;;12.15;11.35;;;;;;;;;;4994806;28;20089;-52
2023/02/05 03:26:26;;;;;;;11.93;11.18;;;;;;;;;;5003214;28;20061;-54
2023/02/05 03:28:53;;;;;;;11.43;10.65;;;;;;;;;;4998633;28;20030;-53
2023/02/05 03:31:27;;;;;;;13.65;12.63;;;;;;;;;;4995920;28;20507;-45
2023/02/05 03:34:02;;;;;;;14.30;13.30;;;;;;;;;;4998892;28;20120;-47
2023/02/05 03:36:46;;;;;;;13.25;12.27;;;;;;;;;;5002880;28;20041;-45
2023/02/05 03:39:29;;;;;;;13.13;12.10;;;;;;;;;;4998778;28;20049;-46
2023/02/05 03:42:16;;;;;;;13.15;12.35;;;;;;;;;;4997276;28;20057;-45
2023/02/05 03:44:56;;;;;;;11.32;10.63;;;;;;;;;;4996455;28;20104;-51
2023/02/05 03:47:36;;;;;;;11.00;10.30;;;;;;;;;;4996352;28;20460;-55
2023/02/05 03:50:01;;;;;;;11.13;10.43;;;;;;;;;;4997050;28;20049;-55
2023/02/05 03:52:34;;;;;;;10.95;10.27;;;;;;;;;;4996799;28;20034;-54
2023/02/05 03:55:14;;;;;;;12.68;11.88;;;;;;;;;;4995836;28;20089;-55
2023/02/05 03:57:39;;;;;;;11.18;10.48;;;;;;;;;;4995192;28;20141;-53
2023/02/05 04:00:05;;;;;;;11.65;10.95;;;;;;;;;;4994872;28;20116;-47
2023/02/05 04:02:32;;;;;;;11.10;10.40;;;;;;;;;;4995426;28;20117;-45
2023/02/05 04:04:57;;;;;;;12.00;11.25;;;;;;;;;;4996917;28;20034;-46
2023/02/05 04:07:23;;;;;;;13.45;12.45;;;;;;;;;;4996453;28;20033;-47
2023/02/05 04:09:48;;;;;;;13.10;12.30;;;;;;;;;;4997958;28;20042;-45
2023/02/05 04:12:13;;;;;;;11.80;11.02;;;;;;;;;;4997196;28;20034;-46
2023/02/05 04:14:39;;;;;;;11.32;10.52;;;;;;;;;;4997692;28;20139;-46
2023/02/05 04:17:04;;;;;;;11.00;10.30;;;;;;;;;;4999393;28;20030;-55
2023/02/05 04:19:29;;;;;;;11.23;10.52;;;;;;;;;;4995038;28;20037;-46
2023/02/05 04:21:55;;;;;;;10.68;9.98;;;;;;;;;;4995685;28;20422;-46
2023/02/05 04:24:20;;;;;;;10.30;9.70;;;;;;;;;;4996693;28;20192;-46
2023/02/05 04:26:45;;;;;;;10.85;10.15;;;;;;;;;;4994270;28;20620;-45
2023/02/05 04:29:11;;;;;;;11.57;10.75;;;;;;;;;;4994675;28;20038;-46
2023/02/05 04:31:36;;;;;;;12.10;11.30;;;;;;;;;;4995468;28;20156;-45
2023/02/05 04:34:02;;;;;;;10.70;10.07;;;;;;;;;;4996076;28;20495;-45
2023/02/05 04:36:27;;;;;;;11.43;10.73;;;;;;;;;;5004142;28;20439;-46
2023/02/05 04:38:53;;;;;;;11.57;10.80;;;;;;;;;;4996087;28;20121;-54
2023/02/05 04:41:18;;;;;;;10.38;9.73;;;;;;;;;;4997009;28;20066;-54
2023/02/05 04:43:43;;;;;;;11.98;11.10;;;;;;;;;;4996858;28;20527;-54
2023/02/05 04:46:10;;;;;;;11.25;10.55;;;;;;;;;;4996167;28;20041;-54
2023/02/05 04:48:36;;;;;;;10.90;10.20;;;;;;;;;;4995332;28;20125;-54
2023/02/05 04:51:07;;;;;;;11.73;10.98;;;;;;;;;;4992373;28;20038;-55
2023/02/05 04:53:32;;;;;;;10.68;10.02;;;;;;;;;;4996438;28;20499;-54
2023/02/05 04:56:12;;;;;;;11.13;10.43;;;;;;;;;;4994267;28;20061;-52
2023/02/05 04:58:37;;;;;;;11.65;10.95;;;;;;;;;;4995705;28;20076;-52
2023/02/05 05:01:04;;;;;;;11.30;10.60;;;;;;;;;;4993692;28;20037;-45
2023/02/05 05:03:30;;;;;;;11.57;10.52;;;;;;;;;;4995525;28;20042;-45
2023/02/05 05:05:55;;;;;;;11.32;10.63;;;;;;;;;;4996914;28;20053;-48
2023/02/05 05:08:21;;;;;;;11.07;10.15;;;;;;;;;;4996080;28;20038;-46
2023/02/05 05:10:46;;;;;;;12.68;11.70;;;;;;;;;;4999065;28;20478;-48
2023/02/05 05:13:12;;;;;;;12.32;11.52;;;;;;;;;;4995836;28;20038;-46
2023/02/05 05:15:37;;;;;;;12.00;11.00;;;;;;;;;;4998582;28;20548;-46
2023/02/05 05:18:03;;;;;;;11.63;10.82;;;;;;;;;;4997136;28;20044;-49
2023/02/05 05:20:28;;;;;;;9.82;9.23;;;;;;;;;;4996483;28;20061;-45
2023/02/05 05:22:54;;;;;;;10.50;9.90;;;;;;;;;;4994468;28;20096;-48
2023/02/05 05:25:20;;;;;;;10.98;10.27;;;;;;;;;;4998006;28;20034;-46
2023/02/05 05:27:45;;;;;;;11.93;11.10;;;;;;;;;;4997023;28;20041;-47
2023/02/05 05:30:11;;;;;;;10.27;9.68;;;;;;;;;;4995761;28;20551;-47
2023/02/05 05:32:36;;;;;;;11.50;10.80;;;;;;;;;;4995820;28;20045;-47
2023/02/05 05:35:02;;;;;;;11.57;10.88;;;;;;;;;;4995361;28;20034;-47
2023/02/05 05:37:27;;;;;;;11.55;10.85;;;;;;;;;;4995152;28;20096;-45
2023/02/05 05:45:21;;;;;;;12.75;11.98;;;;;;;;;;4997373;28;20041;-45
2023/02/05 05:47:46;;;;;;;12.18;11.40;;;;;;;;;;4994387;28;20034;-45
2023/02/05 05:50:12;;;;;;;11.27;10.57;;;;;;;;;;4995174;28;20467;-47
2023/02/05 05:52:37;;;;;;;13.00;12.20;;;;;;;;;;4992859;28;20077;-47
2023/02/05 05:55:02;;;;;;;11.13;10.43;;;;;;;;;;4994962;28;20037;-47
2023/02/05 05:57:28;;;;;;;14.38;10.40;;;;;;;;;;4995510;28;20045;-47
2023/02/05 05:59:53;;;;;;;11.52;10.82;;;;;;;;;;4993157;28;20034;-45
2023/02/05 06:02:18;;;;;;;11.02;10.25;;;;;;;;;;4992845;28;20054;-46
2023/02/05 06:04:44;;;;;;;10.90;10.20;;;;;;;;;;4992754;28;20065;-45
2023/02/05 06:07:10;;;;;;;11.10;10.30;;;;;;;;;;4994743;28;20094;-45
2023/02/05 06:09:35;;;;;;;10.50;9.85;;;;;;;;;;4994637;28;20115;-46
2023/02/05 06:12:00;;;;;;;11.00;10.30;;;;;;;;;;4993125;28;20077;-45
2023/02/05 06:14:26;;;;;;;11.85;11.13;;;;;;;;;;4993437;28;20120;-47
2023/02/05 06:16:54;;;;;;;11.02;10.30;;;;;;;;;;4995364;28;20045;-46
2023/02/05 06:19:19;;;;;;;10.80;10.10;;;;;;;;;;4995095;28;20034;-46
2023/02/05 06:21:44;;;;;;;10.93;10.23;;;;;;;;;;4994404;28;20083;-47
2023/02/05 06:24:10;;;;;;;11.10;10.30;;;;;;;;;;4992109;28;20041;-48
2023/02/05 06:26:35;;;;;;;10.27;9.57;;;;;;;;;;4995153;28;20069;-47
2023/02/05 06:29:02;;;;;;;10.82;10.13;;;;;;;;;;4997310;28;20057;-46
2023/02/05 06:31:29;;;;;;;10.75;10.05;;;;;;;;;;4992981;28;20486;-46
2023/02/05 06:33:54;;;;;;;10.13;9.52;;;;;;;;;;4992691;28;20329;-48
2023/02/05 06:36:19;;;;;;;10.50;9.85;;;;;;;;;;4995607;28;20045;-47
2023/02/05 06:38:45;;;;;;;11.63;10.93;;;;;;;;;;4995399;28;20061;-47
2023/02/05 06:41:10;;;;;;;11.43;10.73;;;;;;;;;;4995683;28;20137;-48
2023/02/05 06:43:35;;;;;;;11.40;10.70;;;;;;;;;;4992485;28;20085;-47
2023/02/05 06:46:01;;;;;;;11.43;10.63;;;;;;;;;;4994611;28;20070;-49
2023/02/05 06:48:26;;;;;;;11.27;10.57;;;;;;;;;;4999656;28;20044;-46
2023/02/05 06:50:51;;;;;;;10.63;10.02;;;;;;;;;;4998096;28;20361;-49
2023/02/05 06:53:17;;;;;;;12.50;11.70;;;;;;;;;;4996517;28;20092;-48
2023/02/05 06:55:42;;;;;;;11.15;10.45;;;;;;;;;;5000872;28;20052;-48
2023/02/05 06:58:08;;;;;;;11.38;10.68;;;;;;;;;;4998020;28;20124;-50
2023/02/05 07:00:34;;;;;;;11.05;10.35;;;;;;;;;;4997376;28;20030;-50
2023/02/05 07:02:59;;;;;;;10.90;10.20;;;;;;;;;;4999498;28;20026;-47
2023/02/05 07:05:25;;;;;;;11.23;10.52;;;;;;;;;;4999708;28;20034;-47
2023/02/05 07:07:50;;;;;;;11.27;10.57;;;;;;;;;;5000236;28;20030;-46
2023/02/05 07:10:16;;;;;;;11.93;11.13;;;;;;;;;;4997073;28;20041;-48
2023/02/05 07:12:41;;;;;;;12.80;11.77;;;;;;;;;;4999804;28;20065;-56
2023/02/05 07:15:07;;;;;;;11.63;10.85;;;;;;;;;;4996642;28;20089;-57
2023/02/05 07:17:32;;;;;;;11.05;10.35;;;;;;;;;;4998272;28;20780;-55
2023/02/05 07:19:58;;;;;;;12.40;11.60;;;;;;;;;;4997068;28;20049;-57
2023/02/05 07:22:23;;;;;;;11.90;11.10;;;;;;;;;;4997894;28;20048;-57
2023/02/05 07:24:49;;;;;;;11.02;10.32;;;;;;;;;;4998087;28;20050;-59
2023/02/05 07:27:14;;;;;;;10.73;10.02;;;;;;;;;;4997567;28;20045;-59
2023/02/05 07:29:40;;;;;;;11.85;11.15;;;;;;;;;;4996529;28;20034;-59
2023/02/05 07:32:05;;;;;;;11.48;10.77;;;;;;;;;;4997195;28;20018;-59
2023/02/05 07:34:30;;;;;;;10.73;10.02;;;;;;;;;;4996733;28;20461;-60
2023/02/05 07:36:56;;;;;;;11.23;10.32;;;;;;;;;;4995947;28;20038;-59
2023/02/05 07:39:21;;;;;;;11.43;10.63;;;;;;;;;;4997769;28;20060;-59
2023/02/05 07:41:46;;;;;;;10.88;10.18;;;;;;;;;;4998559;28;20027;-59
2023/02/05 07:44:12;;;;;;;12.02;11.23;;;;;;;;;;4997700;28;20073;-64
2023/02/05 07:46:37;;;;;;;11.98;11.15;;;;;;;;;;4998194;28;20037;-57
2023/02/05 07:49:03;;;;;;;11.25;10.27;;;;;;;;;;4997086;28;20033;-57
2023/02/05 07:51:28;;;;;;;11.25;10.45;;;;;;;;;;4998101;28;20537;-58
2023/02/05 07:53:53;;;;;;;12.60;11.70;;;;;;;;;;4997223;28;20038;-57
2023/02/05 07:56:20;;;;;;;11.88;10.77;;;;;;;;;;4996038;28;20038;-58
2023/02/05 07:58:46;;;;;;;12.30;11.52;;;;;;;;;;4994989;28;20068;-58
2023/02/05 08:01:11;;;;;;;12.02;11.25;;;;;;;;;;4998059;28;20448;-59
2023/02/05 08:03:37;;;;;;;12.85;11.75;;;;;;;;;;4995404;28;20118;-59
2023/02/05 08:06:07;;;;;;;9.68;9.07;;;;;;;;;;4998432;28;20060;-60
2023/02/05 08:08:32;;;;;;;10.80;10.10;;;;;;;;;;4995811;28;20400;-59
2023/02/05 08:11:03;;;;;;;12.15;11.35;;;;;;;;;;4997006;28;20057;-59
2023/02/05 08:13:29;;;;;;;12.77;11.88;;;;;;;;;;4995812;28;20044;-59
2023/02/05 08:15:54;;;;;;;12.02;11.02;;;;;;;;;;4997707;28;20038;-60
2023/02/05 08:18:20;;;;;;;11.82;11.13;;;;;;;;;;4995161;28;20103;-56
2023/02/05 08:20:45;;;;;;;12.27;11.48;;;;;;;;;;4995106;28;20116;-58
2023/02/05 08:23:11;;;;;;;13.88;12.70;;;;;;;;;;4992666;28;20054;-56
2023/02/05 08:25:38;;;;;;;20.30;11.23;;;;;;;;;;4994999;28;20030;-56
2023/02/05 08:28:04;;;;;;;12.20;11.40;;;;;;;;;;4997848;28;20041;-57
2023/02/05 08:30:29;;;;;;;13.48;12.50;;;;;;;;;;4996040;28;20087;-57
2023/02/05 08:32:54;;;;;;;11.98;11.07;;;;;;;;;;4996206;28;20045;-57
2023/02/05 08:35:20;;;;;;;12.02;11.23;;;;;;;;;;4996471;28;20261;-57
2023/02/05 08:37:45;;;;;;;12.38;11.50;;;;;;;;;;4994027;28;20346;-55
2023/02/05 08:40:11;;;;;;;12.75;11.85;;;;;;;;;;4996695;28;20046;-54
2023/02/05 08:42:36;;;;;;;10.60;9.90;;;;;;;;;;4998860;28;20041;-54
2023/02/05 08:45:02;;;;;;;11.60;10.88;;;;;;;;;;4993880;28;20038;-52
2023/02/05 08:47:28;;;;;;;12.30;11.52;;;;;;;;;;4994485;28;20038;-54
2023/02/05 08:49:53;;;;;;;11.45;10.75;;;;;;;;;;4998898;28;20514;-54
2023/02/05 08:52:19;;;;;;;12.35;11.55;;;;;;;;;;4997109;28;20281;-53
2023/02/05 08:54:45;;;;;;;12.77;11.98;;;;;;;;;;4994801;28;20050;-53
2023/02/05 08:57:10;;;;;;;12.90;11.90;;;;;;;;;;4996601;28;20072;-53
2023/02/05 08:59:36;;;;;;;12.40;11.60;;;;;;;;;;4996782;28;20025;-54
2023/02/05 09:02:02;;;;;;;14.10;12.88;;;;;;;;;;4994652;28;20467;-54
2023/02/05 09:04:28;;;;;;;14.43;13.43;;;;;;;;;;4996274;28;20546;-55
2023/02/05 09:06:53;;;;;;;12.68;11.88;;;;;;;;;;4997273;28;20038;-54
2023/02/05 09:09:19;;;;;;;13.95;13.07;;;;;;;;;;4995393;28;20113;-54
2023/02/05 09:11:45;;;;;;;13.98;12.93;;;;;;;;;;5003315;28;20045;-54
2023/02/05 09:14:11;;;;;;;13.43;12.63;;;;;;;;;;4996304;28;20057;-54
2023/02/05 09:16:37;;;;;;;12.60;11.60;;;;;;;;;;4995950;28;20042;-54
2023/02/05 09:19:03;;;;;;;12.52;11.63;;;;;;;;;;4993817;28;20060;-55
2023/02/05 09:21:29;;;;;;;10.95;10.25;;;;;;;;;;4994831;28;20052;-54
2023/02/05 09:23:56;;;;;;;11.77;11.07;;;;;;;;;;4995219;28;20037;-54
2023/02/05 09:26:21;;;;;;;12.65;11.85;;;;;;;;;;4996155;28;20038;-52
2023/02/05 09:28:47;;;;;;;12.40;11.60;;;;;;;;;;4994683;28;20034;-53
2023/02/05 09:31:15;;;;;;;12.98;12.18;;;;;;;;;;4994530;28;20065;-52
2023/02/05 09:33:41;;;;;;;13.10;12.20;;;;;;;;;;4995342;28;20034;-52
2023/02/05 09:36:16;;;;;;;12.88;12.07;;;;;;;;;;4993977;28;20038;-54
2023/02/05 09:38:42;;;;;;;13.77;12.88;;;;;;;;;;4994780;28;20044;-54
2023/02/05 09:41:13;;;;;;;12.20;11.50;;;;;;;;;;4997068;28;20037;-51
2023/02/05 09:43:57;;;;;;;13.48;12.57;;;;;;;;;;4993864;28;20057;-52
2023/02/05 09:46:44;;;;;;;11.70;11.00;;;;;;;;;;4994891;28;20042;-52
2023/02/05 09:49:20;;;;;;;12.05;11.25;;;;;;;;;;4994715;28;20037;-54
2023/02/05 09:51:50;;;;;;;11.60;10.90;;;;;;;;;;4995983;28;20050;-54
2023/02/05 09:54:21;;;;;;;12.65;11.85;;;;;;;;;;4995079;28;20073;-53
2023/02/05 09:56:49;;;;;;;12.70;11.85;;;;;;;;;;4996697;28;20138;-55
2023/02/05 09:59:18;;;;;;;13.05;12.15;;;;;;;;;;4992953;28;20033;-55
2023/02/05 10:01:55;;;;;;;13.30;12.50;;;;;;;;;;4990992;28;20030;-55
2023/02/05 10:04:20;;;;;;;12.57;11.77;;;;;;;;;;4993783;28;20125;-54
2023/02/05 10:07:00;;;;;;;14.77;13.35;;;;;;;;;;4996406;28;20128;-55
2023/02/05 10:09:38;;;;;;;14.30;13.40;;;;;;;;;;4994230;28;20038;-54
2023/02/05 10:12:35;;;;;;;12.40;11.60;;;;;;;;;;4997064;28;20091;-53
2023/02/05 10:15:12;;;;;;;13.30;12.40;;;;;;;;;;4994259;28;20038;-54
2023/02/05 10:17:57;;;;;;;13.57;12.70;;;;;;;;;;4993789;28;20465;-52
2023/02/05 10:20:42;;;;;;;12.93;12.02;;;;;;;;;;4992286;28;20061;-53
2023/02/05 10:23:15;;;;;;;14.50;13.40;;;;;;;;;;4997940;28;20104;-54
2023/02/05 10:25:56;;;;;;;12.55;11.80;;;;;;;;;;4998577;28;20053;-54
2023/02/05 10:28:46;;;;;;;13.15;12.35;;;;;;;;;;5012952;28;20070;-54
2023/02/05 10:31:36;;;;;;;11.75;11.05;;;;;;;;;;4999719;28;20049;-54
2023/02/05 10:34:29;;;;;;;13.07;12.27;;;;;;;;;;4996688;28;20467;-55
2023/02/05 10:36:55;;;;;;;13.55;12.52;;;;;;;;;;4994987;28;20109;-54
2023/02/05 10:39:25;;;;;;;14.23;13.23;;;;;;;;;;4999494;28;20120;-55
2023/02/05 10:42:08;;;;;;;13.80;12.90;;;;;;;;;;4997101;28;20320;-55
2023/02/05 10:44:42;;;;;;;15.57;14.27;;;;;;;;;;4997351;28;20035;-55
2023/02/05 10:47:23;;;;;;;15.10;14.00;;;;;;;;;;5002251;28;20044;-56
2023/02/05 10:50:02;;;;;;;14.48;13.38;;;;;;;;;;5000171;28;20041;-55
2023/02/05 10:52:28;;;;;;;13.45;12.52;;;;;;;;;;4996911;28;20563;-57
2023/02/05 10:54:53;;;;;;;13.65;12.63;;;;;;;;;;4999675;28;20343;-55
2023/02/05 10:57:21;;;;;;;15.20;14.20;;;;;;;;;;4998328;28;20053;-57
2023/02/05 10:59:53;;;;;;;13.43;12.35;;;;;;;;;;4999071;28;20117;-56
2023/02/05 11:02:19;;;;;;;14.15;13.25;;;;;;;;;;4998470;28;20053;-58
2023/02/05 11:05:01;;;;;;;12.88;11.98;;;;;;;;;;4999875;28;20092;-58
2023/02/05 11:07:42;;;;;;;14.02;13.13;;;;;;;;;;4999461;28;20042;-57
2023/02/05 11:10:23;;;;;;;11.57;10.88;;;;;;;;;;4998119;28;20065;-57
2023/02/05 11:12:52;;;;;;;13.63;12.63;;;;;;;;;;5000338;28;20048;-57
2023/02/05 11:15:19;;;;;;;13.48;12.60;;;;;;;;;;4996574;28;20639;-56
2023/02/05 11:17:50;;;;;;;13.65;12.75;;;;;;;;;;4997167;28;20041;-57
2023/02/05 11:20:15;;;;;;;13.02;12.23;;;;;;;;;;4996052;28;20432;-56
2023/02/05 11:22:41;;;;;;;13.00;11.70;;;;;;;;;;4996765;28;20141;-56
2023/02/05 11:25:09;;;;;;;13.18;12.27;;;;;;;;;;5004043;28;20471;-56
2023/02/05 11:27:35;;;;;;;12.68;11.88;;;;;;;;;;4998119;28;20049;-56
2023/02/05 11:30:24;;;;;;;13.77;12.85;;;;;;;;;;4997368;28;20041;-56
2023/02/05 11:32:50;;;;;;;12.57;11.75;;;;;;;;;;4995950;28;20124;-57
2023/02/05 11:35:29;;;;;;;13.02;12.05;;;;;;;;;;4998533;28;20125;-55
2023/02/05 11:38:19;;;;;;;12.77;11.88;;;;;;;;;;4997591;28;20385;-57
2023/02/05 11:40:52;;;;;;;12.88;12.07;;;;;;;;;;4993208;28;20400;-58
2023/02/05 11:43:25;;;;;;;13.02;12.23;;;;;;;;;;4997276;28;20763;-56
2023/02/05 11:45:52;;;;;;;14.00;13.00;;;;;;;;;;4999779;28;20091;-57
2023/02/05 11:48:25;;;;;;;14.35;13.35;;;;;;;;;;4995949;28;20466;-55
2023/02/05 11:50:50;;;;;;;12.63;11.82;;;;;;;;;;4998299;28;20682;-58
2023/02/05 11:53:19;;;;;;;13.30;12.40;;;;;;;;;;4998133;28;20050;-57
2023/02/05 11:55:50;;;;;;;14.52;13.30;;;;;;;;;;4997693;28;20038;-56
2023/02/05 11:58:34;;;;;;;;;;;;;;;;;;4997784;28;20097;-56
2023/02/05 12:01:05;;;;;;;14.95;13.98;;;;;;;;;;4995313;28;19928;-58
2023/02/05 12:03:33;;;;;;;12.90;12.10;;;;;;;;;;4995127;28;20046;-57
2023/02/05 12:06:17;;;;;;;13.93;12.90;;;;;;;;;;4996731;28;20029;-59
2023/02/05 12:08:49;;;;;;;13.13;12.27;;;;;;;;;;4997343;28;20031;-57
2023/02/05 12:11:59;;;;;;;13.20;12.40;;;;;;;;;;4995493;28;20041;-56
2023/02/05 12:14:41;;;;;;;14.10;13.13;;;;;;;;;;4997477;28;20053;-55
2023/02/05 12:17:15;;;;;;;13.63;12.77;;;;;;;;;;4995217;28;20049;-54
2023/02/05 12:19:56;;;;;;;13.48;12.57;;;;;;;;;;4997212;28;20404;-56
2023/02/05 12:22:48;;;;;;;14.30;13.45;;;;;;;;;;4995553;28;20038;-57
2023/02/05 12:25:24;;;;;;;12.75;11.98;;;;;;;;;;4996785;28;20620;-57
2023/02/05 12:28:01;;;;;;;13.32;12.35;;;;;;;;;;4996220;28;20030;-58
2023/02/05 12:30:44;;;;;;;12.90;12.10;;;;;;;;;;4995126;28;20060;-56
2023/02/05 12:33:47;;;;;;;12.75;11.95;;;;;;;;;;4996098;28;20030;-57
2023/02/05 12:36:38;;;;;;;14.18;13.27;;;;;;;;;;4995811;28;20864;-56
2023/02/05 12:39:34;;;;;;;13.88;12.80;;;;;;;;;;4992900;28;20045;-58
2023/02/05 12:42:06;;;;;;;11.82;11.13;;;;;;;;;;4996374;28;20041;-57
2023/02/05 12:44:58;;;;;;;12.45;11.65;;;;;;;;;;4993998;28;20108;-57
2023/02/05 12:47:49;;;;;;;13.15;12.27;;;;;;;;;;4995048;28;20125;-56
2023/02/05 12:50:20;;;;;;;;;;;;;;;;;;4993314;28;20034;-56
2023/02/05 12:53:14;;;;;;;11.55;10.85;;;;;;;;;;4993570;28;19917;-54
2023/02/05 12:56:01;;;;;;;12.02;11.30;;;;;;;;;;4995567;28;20502;-57
2023/02/05 12:58:35;;;;;;;12.15;11.23;;;;;;;;;;4994194;28;20108;-55
2023/02/05 13:01:07;;;;;;;13.18;12.30;;;;;;;;;;4994935;28;20456;-55
2023/02/05 13:03:37;;;;;;;14.50;13.27;;;;;;;;;;4995361;28;20461;-58
2023/02/05 13:06:09;;;;;;;12.75;11.52;;;;;;;;;;4995129;28;20034;-58
2023/02/05 13:08:51;;;;;;;12.73;11.90;;;;;;;;;;5009784;28;20045;-59
2023/02/05 13:11:23;;;;;;;14.75;12.60;;;;;;;;;;4992408;28;20126;-58
2023/02/05 13:14:05;;;;;;;13.23;12.38;;;;;;;;;;4994798;28;20030;-59
2023/02/05 13:16:46;;;;;;;12.43;11.63;;;;;;;;;;4995912;28;20902;-58
2023/02/05 13:19:39;;;;;;;13.35;12.55;;;;;;;;;;4994706;28;20057;-58
2023/02/05 13:28:41;;;;;;;12.65;11.75;;;;;;;;;;4991169;28;20041;-59
2023/02/05 13:31:37;;;;;;;12.98;12.07;;;;;;;;;;4996693;28;20065;-58
2023/02/05 13:34:05;;;;;;;13.82;13.00;;;;;;;;;;4993444;28;20038;-58
2023/02/05 13:36:55;;;;;;;13.15;12.35;;;;;;;;;;4990399;28;20058;-58
2023/02/05 13:39:44;;;;;;;13.40;12.60;;;;;;;;;;4996474;28;20038;-57
2023/02/05 13:42:16;;;;;;;14.43;13.38;;;;;;;;;;4993622;28;20091;-59
2023/02/05 13:44:41;;;;;;;12.70;11.95;;;;;;;;;;4994656;28;20112;-58
2023/02/05 13:47:38;;;;;;;14.30;13.20;;;;;;;;;;4994666;28;20492;-59
2023/02/05 13:50:44;;;;;;;13.30;12.50;;;;;;;;;;4993289;28;20122;-58
2023/02/05 13:53:16;;;;;;;13.48;12.60;;;;;;;;;;4990731;28;20058;-58
2023/02/05 13:55:51;;;;;;;12.23;11.48;;;;;;;;;;4992647;28;20072;-57
2023/02/05 13:58:27;;;;;;;12.32;11.45;;;;;;;;;;4996292;28;20141;-58
2023/02/05 14:01:03;;;;;;;12.50;11.70;;;;;;;;;;4992876;28;20107;-59
2023/02/05 14:03:39;;;;;;;11.75;11.02;;;;;;;;;;4990664;28;20487;-59
2023/02/05 14:06:29;;;;;;;11.85;11.05;;;;;;;;;;4992441;28;20030;-57
2023/02/05 14:09:02;;;;;;;13.02;12.23;;;;;;;;;;4995655;28;20034;-58
2023/02/05 14:11:41;;;;;;;12.35;11.55;;;;;;;;;;4996228;28;20076;-57
2023/02/05 14:14:12;;;;;;;12.32;11.50;;;;;;;;;;4990313;28;20030;-58
2023/02/05 14:16:38;;;;;;;12.45;11.65;;;;;;;;;;4993620;28;20527;-58
2023/02/05 14:19:12;;;;;;;12.98;12.18;;;;;;;;;;4992357;28;20038;-58
2023/02/05 14:21:43;;;;;;;12.02;11.23;;;;;;;;;;4995437;28;20125;-57
2023/02/05 14:24:39;;;;;;;13.43;12.52;;;;;;;;;;4990223;28;20656;-58
2023/02/05 14:27:36;;;;;;;11.18;10.48;;;;;;;;;;4995282;28;20052;-58
2023/02/05 14:30:29;;;;;;;13.13;12.30;;;;;;;;;;4995397;28;20034;-58
2023/02/05 14:32:57;;;;;;;11.77;11.07;;;;;;;;;;4990992;28;20440;-55
2023/02/05 14:35:38;;;;;;;13.45;12.65;;;;;;;;;;4989617;28;20114;-53
2023/02/05 14:38:31;;;;;;;12.32;11.60;;;;;;;;;;4990425;28;20117;-54
2023/02/05 14:41:00;;;;;;;11.93;11.23;;;;;;;;;;4991698;28;20528;-53
2023/02/05 14:43:31;;;;;;;11.10;10.40;;;;;;;;;;4992815;28;20034;-53
2023/02/05 14:46:02;;;;;;;13.27;11.97;;;;;;;;;;4994258;28;20049;-53
2023/02/05 14:48:30;;;;;;;11.70;10.90;;;;;;;;;;4994895;28;20037;-54
2023/02/05 14:51:51;;;;;;;12.88;11.98;;;;;;;;;;4993171;28;20228;-55
2023/02/05 14:54:21;;;;;;;11.50;10.70;;;;;;;;;;4960444;28;20042;-51